Gage Information Page
Francis E. Walter Reservoir, PA

Provisional Data Subject to Revision
Francis E. Walter Reservoir, PA
Amber Threshold Elevation:1392 feet
Red Threshold Elevation:1441 feet
Date (ET) Elevation (ft) Storage (ac-ft) Inflow (cfs) Outflow (cfs)
Jul 28, 2014 12:15 am 1363.67 17582 174 250
Jul 27, 2014 11:15 pm 1363.69 17591 174 250
Jul 27, 2014 10:15 pm 1363.68 17587 160 250
Jul 27, 2014   9:15 pm 1363.70 17596 160 250
Jul 27, 2014   8:15 pm 1363.72 17605 156 250
Jul 27, 2014   7:15 pm 1363.73 17610 164 250
Jul 27, 2014   6:15 pm 1363.75 17619 173 250
Jul 27, 2014   5:15 pm 1363.76 17623 188 250
Jul 27, 2014   4:15 pm 1363.78 17633 203 250
Jul 27, 2014   3:15 pm 1363.80 17642 219 250
Jul 27, 2014   2:15 pm 1363.81 17646 227 254
Jul 27, 2014   1:15 pm 1363.83 17655 242 254
Jul 27, 2014 12:15 pm 1363.88 17678 268 760
Jul 27, 2014 11:15 am 1363.97 17720 261 760
Jul 27, 2014 10:15 am 1364.07 17765 275 760
Jul 27, 2014   9:15 am 1364.15 17802 262 760
Jul 27, 2014   8:15 am 1364.24 17843 271 760
Jul 27, 2014   7:15 am 1364.33 17884 256 760
Jul 27, 2014   6:15 am 1364.42 17926 248 760
Jul 27, 2014   5:15 am 1364.51 17967 233 760
Jul 27, 2014   4:15 am 1364.59 18003 212 760
Jul 27, 2014   3:15 am 1364.69 18049 211 760
Jul 27, 2014   2:15 am 1364.77 18086 189 760
Jul 27, 2014   1:15 am 1364.86 18127 187 572
Report Generated Jul 28, 2014 01:31 AM

NWS Web Info
USGS Web Info